createdAt,value
2022-12-26T00:00:22.820Z,9.62
2022-12-26T00:02:49.391Z,9.64
2022-12-26T00:05:15.839Z,9.68
2022-12-26T00:07:42.532Z,9.68
2022-12-26T00:10:09.089Z,9.69
2022-12-26T00:12:35.590Z,9.69
2022-12-26T00:15:02.217Z,9.70
2022-12-26T00:17:28.713Z,9.70
2022-12-26T00:19:55.163Z,9.69
2022-12-26T00:22:21.670Z,9.72
2022-12-26T00:24:48.117Z,9.73
2022-12-26T00:27:14.464Z,9.74
2022-12-26T00:29:40.881Z,9.74
2022-12-26T00:32:07.331Z,9.74
2022-12-26T00:34:33.700Z,9.73
2022-12-26T00:37:00.297Z,9.74
2022-12-26T00:39:27.040Z,9.73
2022-12-26T00:41:53.401Z,9.74
2022-12-26T00:44:19.868Z,9.74
2022-12-26T00:46:46.295Z,9.73
2022-12-26T00:49:12.705Z,9.69
2022-12-26T00:51:39.201Z,9.61
2022-12-26T00:54:05.588Z,9.52
2022-12-26T00:56:32.086Z,9.53
2022-12-26T00:58:58.457Z,9.56
2022-12-26T01:01:25.130Z,9.61
2022-12-26T01:03:52.187Z,9.63
2022-12-26T01:06:18.668Z,9.64
2022-12-26T01:08:45.123Z,9.64
2022-12-26T01:11:14.708Z,9.65
2022-12-26T01:13:42.069Z,9.69
2022-12-26T01:16:08.665Z,9.70
2022-12-26T01:18:35.825Z,9.71
2022-12-26T01:21:06.039Z,9.74
2022-12-26T01:23:32.618Z,9.76
2022-12-26T01:26:18.342Z,9.78
2022-12-26T01:28:45.553Z,9.79
2022-12-26T01:31:11.978Z,9.81
2022-12-26T01:33:38.455Z,9.81
2022-12-26T01:36:05.252Z,9.80
2022-12-26T01:38:31.666Z,9.80
2022-12-26T01:41:16.416Z,9.82
2022-12-26T01:44:01.231Z,9.85
2022-12-26T01:46:31.765Z,9.87
2022-12-26T01:49:02.270Z,9.86
2022-12-26T01:51:33.573Z,9.86
2022-12-26T01:54:40.391Z,9.87
2022-12-26T01:56:51.341Z,9.88
2022-12-26T01:59:22.486Z,9.86
2022-12-26T02:01:51.839Z,9.82
2022-12-26T02:04:44.527Z,9.83
2022-12-26T02:07:11.216Z,9.83
2022-12-26T02:09:38.980Z,9.85
2022-12-26T02:12:36.676Z,9.84
2022-12-26T02:15:12.381Z,9.79
2022-12-26T02:17:40.146Z,9.77
2022-12-26T02:20:17.238Z,9.77
2022-12-26T02:23:24.186Z,9.66
2022-12-26T02:26:14.063Z,9.54
2022-12-26T02:29:02.532Z,9.52
2022-12-26T02:31:43.792Z,9.45
2022-12-26T02:34:49.356Z,9.40
2022-12-26T02:37:31.801Z,9.45
2022-12-26T02:40:17.450Z,9.52
2022-12-26T02:42:59.242Z,9.51
2022-12-26T02:46:02.522Z,9.49
2022-12-26T02:48:57.672Z,9.48
2022-12-26T02:52:07.923Z,9.46
2022-12-26T02:55:10.608Z,9.46
2022-12-26T02:58:09.549Z,9.41
2022-12-26T03:00:59.707Z,9.48
2022-12-26T03:03:48.980Z,9.52
2022-12-26T03:06:38.747Z,9.57
2022-12-26T03:09:29.308Z,9.60
2022-12-26T03:12:37.555Z,9.67
2022-12-26T03:15:12.174Z,9.72
2022-12-26T03:17:42.940Z,9.74
2022-12-26T03:20:20.060Z,9.78
2022-12-26T03:23:11.072Z,9.75
2022-12-26T03:26:20.914Z,9.77
2022-12-26T03:28:48.963Z,9.78
2022-12-26T03:31:15.929Z,9.79
2022-12-26T03:34:05.575Z,9.74
2022-12-26T03:36:31.859Z,9.76
2022-12-26T03:39:45.630Z,9.76
2022-12-26T03:43:17.202Z,9.72
2022-12-26T03:46:31.196Z,9.63
2022-12-26T03:49:25.035Z,9.54
2022-12-26T03:52:18.391Z,9.52
2022-12-26T03:55:14.981Z,9.52
2022-12-26T03:58:26.877Z,9.57
2022-12-26T04:01:14.485Z,9.56
2022-12-26T04:04:02.279Z,9.57
2022-12-26T04:06:58.146Z,9.58
2022-12-26T04:09:51.270Z,9.66
2022-12-26T04:12:42.609Z,9.71
2022-12-26T04:15:41.654Z,9.75
2022-12-26T04:18:35.674Z,9.77
2022-12-26T04:21:34.602Z,9.81
2022-12-26T04:24:31.639Z,9.83
2022-12-26T04:27:21.161Z,9.85
2022-12-26T04:30:06.665Z,9.84
2022-12-26T04:32:58.608Z,9.80
2022-12-26T04:35:51.106Z,9.75
2022-12-26T04:38:43.053Z,9.67
2022-12-26T04:41:30.498Z,9.61
2022-12-26T04:44:03.680Z,9.60
2022-12-26T04:46:32.168Z,9.61
2022-12-26T04:49:18.711Z,9.64
2022-12-26T04:51:45.142Z,9.60
2022-12-26T04:54:11.489Z,9.57
2022-12-26T04:56:37.873Z,9.60
2022-12-26T04:59:04.277Z,9.65
2022-12-26T05:01:49.389Z,9.68
2022-12-26T05:04:36.493Z,9.74
2022-12-26T05:07:24.072Z,9.73
2022-12-26T05:09:53.441Z,9.78
2022-12-26T05:12:21.025Z,9.82
2022-12-26T05:14:47.486Z,9.83
2022-12-26T05:17:32.958Z,9.85
2022-12-26T05:20:18.180Z,9.81
2022-12-26T05:23:04.082Z,9.80
2022-12-26T05:25:53.248Z,9.75
2022-12-26T05:28:38.831Z,9.72
2022-12-26T05:31:06.083Z,9.69
2022-12-26T05:33:51.359Z,9.62
2022-12-26T05:36:20.223Z,9.62
2022-12-26T05:38:48.109Z,9.65
2022-12-26T05:41:15.243Z,9.64
2022-12-26T05:43:41.802Z,9.60
2022-12-26T05:46:08.221Z,9.61
2022-12-26T05:48:34.772Z,9.63
2022-12-26T05:51:02.646Z,9.66
2022-12-26T05:53:30.210Z,9.68
2022-12-26T05:56:10.721Z,9.74
2022-12-26T05:58:37.887Z,9.79
2022-12-26T06:01:12.519Z,9.76
2022-12-26T06:03:40.022Z,9.76
2022-12-26T06:06:07.067Z,9.75
2022-12-26T06:08:33.590Z,9.74
2022-12-26T06:11:03.536Z,9.73
2022-12-26T06:13:29.927Z,9.76
2022-12-26T06:15:56.383Z,9.81
2022-12-26T06:18:22.856Z,9.82
2022-12-26T06:20:49.259Z,9.72
2022-12-26T06:23:15.782Z,9.63
2022-12-26T06:25:42.305Z,9.54
2022-12-26T06:28:08.665Z,9.52
2022-12-26T06:30:35.084Z,9.57
2022-12-26T06:33:01.458Z,9.62
2022-12-26T06:35:27.848Z,9.61
2022-12-26T06:37:54.263Z,9.62
2022-12-26T06:40:20.804Z,9.62
2022-12-26T06:42:47.159Z,9.60
2022-12-26T06:45:13.562Z,9.62
2022-12-26T06:47:39.979Z,9.63
2022-12-26T06:50:06.751Z,9.64
2022-12-26T06:52:33.130Z,9.61
2022-12-26T06:54:59.744Z,9.56
2022-12-26T06:57:26.277Z,9.55
2022-12-26T06:59:53.397Z,9.61
2022-12-26T07:02:19.861Z,9.62
2022-12-26T07:04:46.333Z,9.61
2022-12-26T07:07:12.717Z,9.65
2022-12-26T07:09:39.143Z,9.64
2022-12-26T07:12:05.974Z,9.66
2022-12-26T07:14:32.447Z,9.69
2022-12-26T07:16:58.948Z,9.68
2022-12-26T07:19:25.367Z,9.66
2022-12-26T07:21:51.843Z,9.67
2022-12-26T07:24:21.065Z,9.66
2022-12-26T07:26:48.502Z,9.67
2022-12-26T07:29:15.673Z,9.71
2022-12-26T07:31:42.662Z,9.68
2022-12-26T07:34:09.153Z,9.67
2022-12-26T07:36:35.863Z,9.69
2022-12-26T07:39:02.698Z,9.73
2022-12-26T07:41:48.190Z,9.76
2022-12-26T07:44:14.727Z,9.73
2022-12-26T07:46:41.161Z,9.69
2022-12-26T07:49:08.083Z,9.71
2022-12-26T07:51:34.516Z,9.76
2022-12-26T07:54:05.502Z,9.76
2022-12-26T07:56:35.580Z,9.80
2022-12-26T07:59:02.018Z,9.83
2022-12-26T08:01:28.731Z,9.83
2022-12-26T08:03:55.200Z,9.86
2022-12-26T08:06:22.607Z,9.92
2022-12-26T08:08:51.554Z,9.95
2022-12-26T08:11:22.321Z,9.95
2022-12-26T08:13:48.970Z,9.96
2022-12-26T08:16:15.836Z,9.99
2022-12-26T08:18:42.712Z,9.95
2022-12-26T08:21:10.308Z,9.96
2022-12-26T08:23:36.806Z,9.98
2022-12-26T08:26:11.653Z,10.00
2022-12-26T08:28:41.532Z,10.04
2022-12-26T08:31:09.780Z,10.07
2022-12-26T08:33:36.610Z,10.07
2022-12-26T08:36:05.479Z,10.09
2022-12-26T08:38:34.121Z,10.06
2022-12-26T08:41:00.912Z,10.04
2022-12-26T08:43:52.749Z,10.11
2022-12-26T08:46:13.889Z,10.12
2022-12-26T08:48:41.228Z,10.07
2022-12-26T08:51:12.030Z,10.06
2022-12-26T08:53:38.427Z,10.08
2022-12-26T08:56:06.680Z,10.10
2022-12-26T08:58:33.858Z,10.15
2022-12-26T09:01:13.251Z,10.16
2022-12-26T09:03:40.401Z,10.12
2022-12-26T09:06:08.058Z,10.16
2022-12-26T09:08:35.791Z,10.20
2022-12-26T09:11:10.383Z,10.21
2022-12-26T09:13:38.376Z,10.19
2022-12-26T09:16:12.710Z,10.22
2022-12-26T09:18:39.593Z,10.25
2022-12-26T09:21:08.553Z,10.27
2022-12-26T09:23:36.166Z,10.24
2022-12-26T09:26:29.280Z,10.20
2022-12-26T09:28:56.216Z,10.17
2022-12-26T09:31:27.712Z,10.19
2022-12-26T09:33:54.330Z,10.16
2022-12-26T09:36:24.868Z,10.20
2022-12-26T09:38:52.398Z,10.20
2022-12-26T09:41:36.371Z,10.19
2022-12-26T09:44:15.029Z,10.18
2022-12-26T09:46:55.939Z,10.21
2022-12-26T09:49:28.404Z,10.22
2022-12-26T09:52:00.504Z,10.21
2022-12-26T09:54:46.780Z,10.23
2022-12-26T09:57:19.859Z,10.21
2022-12-26T09:59:52.207Z,10.17
2022-12-26T10:02:22.229Z,10.17
2022-12-26T10:04:49.179Z,10.17
2022-12-26T10:07:37.007Z,10.19
2022-12-26T10:10:09.500Z,10.21
2022-12-26T10:12:40.258Z,10.24
2022-12-26T10:15:18.429Z,10.31
2022-12-26T10:18:24.408Z,10.32
2022-12-26T10:21:05.660Z,10.35
2022-12-26T10:23:39.927Z,10.36
2022-12-26T10:26:15.270Z,10.36
2022-12-26T10:28:51.541Z,10.33
2022-12-26T10:31:37.245Z,10.33
2022-12-26T10:34:03.628Z,10.35
2022-12-26T10:36:42.637Z,10.39
2022-12-26T10:39:19.239Z,10.48
2022-12-26T10:41:50.191Z,10.53
2022-12-26T10:44:16.904Z,10.50
2022-12-26T10:47:11.397Z,10.53
2022-12-26T10:49:38.268Z,10.55
2022-12-26T10:52:04.891Z,10.56
2022-12-26T10:54:31.357Z,10.55
2022-12-26T10:57:00.023Z,10.53
2022-12-26T10:59:41.637Z,10.50
2022-12-26T11:02:15.328Z,10.56
2022-12-26T11:07:51.085Z,10.59
2022-12-26T11:10:27.485Z,10.58
2022-12-26T11:13:01.029Z,10.63
2022-12-26T11:15:39.359Z,10.67
2022-12-26T11:18:36.307Z,10.68
2022-12-26T11:21:19.869Z,10.66
2022-12-26T11:23:49.469Z,10.58
2022-12-26T11:26:24.953Z,10.56
2022-12-26T11:29:08.660Z,10.50
2022-12-26T11:31:41.284Z,10.49
2022-12-26T11:34:19.788Z,10.48
2022-12-26T11:36:49.536Z,10.50
2022-12-26T11:39:25.921Z,10.55
2022-12-26T11:41:53.027Z,10.56
2022-12-26T11:44:29.034Z,10.57
2022-12-26T11:47:05.917Z,10.54
2022-12-26T11:49:45.854Z,10.56
2022-12-26T11:52:30.935Z,10.58
2022-12-26T11:54:57.473Z,10.60
2022-12-26T11:57:33.457Z,10.59
2022-12-26T12:00:18.892Z,10.59
2022-12-26T12:02:46.043Z,10.61
2022-12-26T12:05:16.090Z,10.63
2022-12-26T12:08:03.364Z,10.61
2022-12-26T12:10:54.883Z,10.67
2022-12-26T12:13:50.496Z,10.72
2022-12-26T12:16:36.682Z,10.72
2022-12-26T12:19:35.611Z,10.64
2022-12-26T12:22:34.314Z,10.53
2022-12-26T12:25:19.795Z,10.50
2022-12-26T12:27:48.929Z,10.45
2022-12-26T12:30:18.379Z,10.39
2022-12-26T12:33:04.999Z,10.39
2022-12-26T12:35:46.275Z,10.36
2022-12-26T12:38:36.274Z,10.35
2022-12-26T12:41:38.031Z,10.39
2022-12-26T12:44:08.619Z,10.37
2022-12-26T12:46:55.185Z,10.38
2022-12-26T12:49:34.912Z,10.44
2022-12-26T12:52:29.037Z,10.49
2022-12-26T12:55:17.611Z,10.52
2022-12-26T12:58:03.854Z,10.47
2022-12-26T13:00:39.551Z,10.49
2022-12-26T13:03:27.053Z,10.48
2022-12-26T13:06:02.453Z,10.50
2022-12-26T13:08:40.178Z,10.36
2022-12-26T13:11:26.493Z,10.27
2022-12-26T13:14:06.591Z,10.25
2022-12-26T13:16:43.592Z,10.25
2022-12-26T13:19:22.444Z,10.25
2022-12-26T13:21:50.389Z,10.26
2022-12-26T13:24:36.286Z,10.21
2022-12-26T13:27:13.540Z,10.23
2022-12-26T13:29:45.665Z,10.32
2022-12-26T13:32:30.628Z,10.40
2022-12-26T13:34:59.455Z,10.39
2022-12-26T13:37:37.935Z,10.40
2022-12-26T13:40:17.750Z,10.41
2022-12-26T13:43:05.794Z,10.41
2022-12-26T13:45:38.277Z,10.46
2022-12-26T13:48:17.146Z,10.51
2022-12-26T13:50:55.213Z,10.56
2022-12-26T13:53:39.274Z,10.54
2022-12-26T13:56:18.798Z,10.44
2022-12-26T13:59:00.425Z,10.33
2022-12-26T14:01:46.525Z,10.29
2022-12-26T14:04:49.894Z,10.19
2022-12-26T14:07:50.168Z,10.20
2022-12-26T14:10:54.562Z,10.19
2022-12-26T14:14:02.234Z,10.14
2022-12-26T14:16:50.297Z,10.13
2022-12-26T14:19:43.543Z,10.07
2022-12-26T14:22:26.527Z,10.03
2022-12-26T14:25:20.151Z,9.94
2022-12-26T14:27:55.687Z,9.89
2022-12-26T14:30:30.519Z,9.80
2022-12-26T14:33:15.109Z,9.71
2022-12-26T14:35:47.564Z,9.71
2022-12-26T14:38:44.080Z,9.71
2022-12-26T14:41:33.935Z,9.66
2022-12-26T14:44:36.615Z,9.68
2022-12-26T14:47:05.140Z,9.70
2022-12-26T14:49:35.538Z,9.71
2022-12-26T14:52:24.552Z,9.67
2022-12-26T14:54:55.430Z,9.65
2022-12-26T14:57:43.923Z,9.57
2022-12-26T15:00:30.011Z,9.55
2022-12-26T15:02:59.364Z,9.54
2022-12-26T15:05:32.550Z,9.51
2022-12-26T15:08:26.821Z,9.47
2022-12-26T15:10:56.007Z,9.44
2022-12-26T15:13:36.508Z,9.44
2022-12-26T15:16:35.153Z,9.44
2022-12-26T15:19:49.088Z,9.37
2022-12-26T15:22:44.711Z,9.34
2022-12-26T15:25:37.164Z,9.23
2022-12-26T15:28:31.905Z,9.06
2022-12-26T15:31:17.162Z,8.98
2022-12-26T15:33:56.167Z,8.97
2022-12-26T15:36:28.621Z,8.96
2022-12-26T15:39:16.761Z,8.87
2022-12-26T15:42:06.446Z,8.79
2022-12-26T15:44:39.891Z,8.73
2022-12-26T15:47:33.210Z,8.64
2022-12-26T15:50:24.812Z,8.67
2022-12-26T15:53:16.034Z,8.66
2022-12-26T15:55:57.663Z,8.62
2022-12-26T15:59:07.269Z,8.63
2022-12-26T16:01:42.971Z,8.59
2022-12-26T16:04:25.356Z,8.59
2022-12-26T16:07:27.298Z,8.52
2022-12-26T16:09:56.189Z,8.48
2022-12-26T16:12:26.899Z,8.55
2022-12-26T16:15:25.525Z,8.64
2022-12-26T16:17:51.998Z,8.68
2022-12-26T16:20:50.557Z,8.71
2022-12-26T16:23:19.782Z,8.69
2022-12-26T16:25:48.192Z,8.69
2022-12-26T16:28:15.303Z,8.59
2022-12-26T16:30:42.377Z,8.54
2022-12-26T16:33:08.846Z,8.51
2022-12-26T16:35:39.288Z,8.47
2022-12-26T16:38:11.581Z,8.40
2022-12-26T16:40:50.068Z,8.33
2022-12-26T16:43:19.498Z,8.20
2022-12-26T16:45:48.675Z,8.17
2022-12-26T16:48:19.555Z,8.10
2022-12-26T16:50:53.127Z,8.11
2022-12-26T16:53:40.390Z,8.23
2022-12-26T16:56:27.975Z,8.33
2022-12-26T16:59:04.568Z,8.37
2022-12-26T17:01:32.762Z,8.32
2022-12-26T17:04:03.776Z,8.26
2022-12-26T17:06:35.483Z,8.20
2022-12-26T17:09:10.769Z,8.18
2022-12-26T17:11:45.019Z,8.18
2022-12-26T17:14:25.284Z,8.15
2022-12-26T17:17:04.274Z,8.13
2022-12-26T17:19:33.486Z,8.04
2022-12-26T17:22:14.959Z,8.01
2022-12-26T17:24:41.979Z,8.05
2022-12-26T17:27:17.561Z,8.07
2022-12-26T17:29:58.250Z,7.96
2022-12-26T17:32:30.911Z,7.94
2022-12-26T17:35:23.405Z,7.91
2022-12-26T17:37:54.637Z,7.77
2022-12-26T17:40:27.290Z,7.73
2022-12-26T17:43:03.918Z,7.83
2022-12-26T17:45:30.332Z,7.89
2022-12-26T17:47:57.632Z,7.95
2022-12-26T17:50:30.063Z,8.02
2022-12-26T17:53:13.138Z,8.02
2022-12-26T17:55:39.897Z,8.00
2022-12-26T17:58:09.346Z,7.92
2022-12-26T18:00:35.713Z,7.79
2022-12-26T18:03:02.203Z,7.71
2022-12-26T18:05:28.730Z,7.73
2022-12-26T18:07:55.464Z,7.73
2022-12-26T18:10:29.124Z,7.56
2022-12-26T18:12:55.869Z,7.57
2022-12-26T18:15:23.223Z,7.53
2022-12-26T18:17:50.720Z,7.51
2022-12-26T18:20:22.854Z,7.47
2022-12-26T18:22:49.354Z,7.42
2022-12-26T18:25:17.658Z,7.43
2022-12-26T18:27:44.704Z,7.36
2022-12-26T18:30:15.404Z,7.27
2022-12-26T18:32:42.000Z,7.15
2022-12-26T18:35:09.540Z,7.09
2022-12-26T18:37:36.346Z,7.09
2022-12-26T18:40:02.988Z,7.12
2022-12-26T18:42:29.325Z,6.98
2022-12-26T18:44:55.916Z,7.03
2022-12-26T18:47:22.772Z,6.98
2022-12-26T18:49:49.454Z,6.93
2022-12-26T18:52:17.558Z,6.82
2022-12-26T18:54:44.594Z,6.73
2022-12-26T18:57:17.280Z,6.68
2022-12-26T18:59:43.709Z,6.61
2022-12-26T19:02:16.303Z,6.58
2022-12-26T19:04:42.706Z,6.60
2022-12-26T19:07:11.117Z,6.55
2022-12-26T19:09:37.517Z,6.45
2022-12-26T19:12:04.047Z,6.45
2022-12-26T19:14:31.382Z,6.52
2022-12-26T19:16:57.806Z,6.50
2022-12-26T19:19:26.552Z,6.39
2022-12-26T19:21:53.105Z,6.36
2022-12-26T19:24:19.551Z,6.42
2022-12-26T19:26:46.050Z,6.43
2022-12-26T19:29:12.492Z,6.35
2022-12-26T19:31:39.107Z,6.33
2022-12-26T19:34:05.550Z,6.29
2022-12-26T19:36:31.985Z,6.28
2022-12-26T19:38:58.853Z,6.30
2022-12-26T19:41:25.374Z,6.29
2022-12-26T19:43:56.418Z,6.28
2022-12-26T19:46:23.871Z,6.20
2022-12-26T19:48:50.899Z,6.20
2022-12-26T19:51:18.838Z,6.19
2022-12-26T19:53:46.179Z,6.19
2022-12-26T19:56:18.522Z,6.16
2022-12-26T19:58:50.534Z,6.11
2022-12-26T20:01:27.829Z,6.10
2022-12-26T20:03:56.975Z,6.09
2022-12-26T20:06:25.983Z,6.12
2022-12-26T20:08:57.010Z,6.05
2022-12-26T20:11:27.385Z,6.02
2022-12-26T20:13:53.970Z,6.06
2022-12-26T20:17:03.013Z,6.03
2022-12-26T20:19:09.116Z,5.98
2022-12-26T20:21:36.252Z,5.96
2022-12-26T20:24:02.827Z,5.92
2022-12-26T20:26:29.701Z,5.87
2022-12-26T20:29:01.134Z,5.87
2022-12-26T20:31:30.057Z,5.97
2022-12-26T20:33:57.641Z,5.94
2022-12-26T20:36:26.945Z,5.98
2022-12-26T20:38:56.571Z,5.95
2022-12-26T20:41:25.695Z,5.96
2022-12-26T20:43:52.428Z,5.96
2022-12-26T20:46:21.485Z,5.90
2022-12-26T20:48:51.193Z,5.87
2022-12-26T20:51:21.192Z,5.82
2022-12-26T20:53:47.587Z,5.75
2022-12-26T20:56:15.542Z,5.73
2022-12-26T20:58:41.975Z,5.83
2022-12-26T21:01:12.248Z,5.82
2022-12-26T21:03:39.263Z,5.75
2022-12-26T21:06:12.998Z,5.71
2022-12-26T21:08:41.513Z,5.70
2022-12-26T21:11:11.209Z,5.69
2022-12-26T21:13:38.762Z,5.74
2022-12-26T21:16:09.842Z,5.77
2022-12-26T21:18:37.290Z,5.79
2022-12-26T21:21:07.625Z,5.86
2022-12-26T21:23:34.409Z,5.91
2022-12-26T21:26:00.870Z,5.93
2022-12-26T21:28:27.427Z,5.95
2022-12-26T21:30:54.265Z,5.90
2022-12-26T21:33:20.704Z,5.95
2022-12-26T21:35:50.724Z,5.92
2022-12-26T21:38:17.500Z,5.85
2022-12-26T21:40:44.701Z,5.82
2022-12-26T21:43:11.163Z,5.97
2022-12-26T21:45:41.337Z,6.00
2022-12-26T21:48:08.282Z,5.96
2022-12-26T21:50:35.059Z,5.87
2022-12-26T21:53:01.738Z,5.77
2022-12-26T21:55:30.850Z,5.78
2022-12-26T21:58:00.658Z,5.80
2022-12-26T22:00:27.110Z,5.76
2022-12-26T22:03:12.416Z,5.71
2022-12-26T22:05:41.040Z,5.68
2022-12-26T22:08:09.580Z,5.68
2022-12-26T22:10:55.940Z,5.68
2022-12-26T22:13:24.354Z,5.62
2022-12-26T22:16:05.083Z,5.64
2022-12-26T22:18:33.030Z,5.67
2022-12-26T22:21:07.220Z,5.62
2022-12-26T22:23:34.167Z,5.62
2022-12-26T22:26:00.867Z,5.64
2022-12-26T22:28:29.439Z,5.62
2022-12-26T22:30:56.500Z,5.50
2022-12-26T22:33:23.117Z,5.47
2022-12-26T22:35:49.703Z,5.45
2022-12-26T22:38:16.134Z,5.47
2022-12-26T22:40:42.559Z,5.47
2022-12-26T22:43:09.162Z,5.46
2022-12-26T22:45:39.611Z,5.51
2022-12-26T22:48:06.144Z,5.56
2022-12-26T22:50:32.580Z,5.61
2022-12-26T22:52:58.953Z,5.56
2022-12-26T22:55:25.300Z,5.49
2022-12-26T22:57:53.348Z,5.43
2022-12-26T23:00:20.873Z,5.45
2022-12-26T23:02:47.392Z,5.60
2022-12-26T23:05:14.383Z,5.53
2022-12-26T23:07:41.050Z,5.48
2022-12-26T23:10:08.652Z,5.43
2022-12-26T23:12:44.371Z,5.42
2022-12-26T23:15:16.769Z,5.43
2022-12-26T23:18:18.911Z,5.39
2022-12-26T23:21:04.720Z,5.31
2022-12-26T23:23:31.477Z,5.35
2022-12-26T23:26:02.222Z,5.52
2022-12-26T23:28:47.387Z,5.50
2022-12-26T23:31:14.415Z,5.57
2022-12-26T23:33:41.066Z,5.53
2022-12-26T23:36:07.897Z,5.46
2022-12-26T23:38:34.366Z,5.44
2022-12-26T23:41:00.812Z,5.39
2022-12-26T23:43:27.300Z,5.34
2022-12-26T23:45:53.709Z,5.34
2022-12-26T23:48:20.340Z,5.36
2022-12-26T23:50:46.936Z,5.35
2022-12-26T23:53:13.412Z,5.34
2022-12-26T23:55:41.488Z,5.36
2022-12-26T23:58:08.605Z,5.35
